South Bend Regional Airport
KSBN : now visible

Airfield :











YOU CAN JOIN US ON...

 
LOGIN :

Register | Disclaimer

   EN    FR    IT 

 









Legend :    VFR   Marginal VFR   IFR   Intensive IFR   Very Intensive IFR
Visi :
Ceiling :
>= 8 km
>= 3000ft
5 to 8 km
1000 to 3000 ft
1500m to 5 km
500 to 1000 ft
800 to 1500m
200 to 500 ft
< 800m
< 200 ft
Symbols :   Thunderstorms  Fog  Heavy snow  Heavy precipitations  Wind > 20 kt






- Airport Elevation : 799 ft
- IATA code : SBN


KSBN - South Bend Regional

CURRENT METAR :
  • 250908Z AUTO 13006KT 5SM -RA BR BKN021 OVC026 21/19 A2996 RMK AO2 LTG DSNT E AND SE AND NW P0004 T02060189

EXPIRED METARs :
  • 250854Z AUTO 13008KT 4SM VCTS RA BR BKN022 OVC027 21/19 A2996 RMK AO2 LTG DSNT E AND SE RAB0757 TSB11E49 SLP141 P0071 60071 T02060189 58005
  • 250849Z AUTO 13006KT 3SM VCTS +RA BR FEW013 BKN022 OVC027 21/19 A2997 RMK AO2 LTG DSNT E AND SE RAB0757 TSB11E49 P0069
  • 250837Z AUTO 15007KT 2SM +TSRA BR FEW014 SCT023 OVC029 21/19 A2997 RMK AO2 LTG DSNT E-S RAB0757 TSB11 P0062 T02060189
  • 250834Z AUTO 16007KT 1 1/2SM +TSRA BR SCT014 SCT025 OVC030 21/19 A2997 RMK AO2 LTG DSNT ALQDS RAB0757 TSB11 P0059 T02060189
  • 250821Z AUTO 20009KT 1 3/4SM +TSRA BR SCT016 BKN029 OVC034 21/19 A2999 RMK AO2 LTG DSNT ALQDS RAB0757 TSB11 P0030 T02060189
  • 250811Z AUTO 20008G20KT 2SM +TSRA BR FEW026 OVC036 21/19 A2998 RMK AO2 LTG DSNT S AND SW RAB0757 TSB11 P0013 T02060189
  • 250754Z AUTO 18008KT 10SM VCTS BKN036 OVC070 22/18 A2998 RMK AO2 LTG DSNT S-W SLP146 T02220178
  • 250654Z AUTO 17006KT 10SM OVC085 22/17 A2998 RMK AO2 SLP146 T02220172

TAF KSBN
Valid from the 25 at 09:00 until the 26 at 06:00 UTC


250840Z 2509/2606 18012KT 5SM -SHRA BR VCTS SCT035CB OVC080
TEMPO 2509/2512 2SM TSRA BKN035CB
FM251200 19011G19KT 5SM SHRA BR VCTS OVC015CB
TEMPO 2512/2516 2SM +TSRA BR BKN007CB
FM251900 20013G22KT P6SM VCSH BKN015
FM252100 21014KT P6SM BKN025
KZAU FIR / North America



MET'MAP, your aeronautical weather chart ! - Copyright ORBIFLY December 2007 - Disclaimer

ORBIFLY MET'MAP TEAM :

Programming & Development : Alexandra Zaïnal
Concept & original design : Baudouin d'Aumeries
Assistance for programming : Marc-Olivier Méhu
Technical & hardware support : Manuel Goepfert

Contact : metmap@orbifly.com




SOURCES & CREDITS :

   NOAA       Earth
Advisory